createdAt,value
2023-03-13T00:00:25.149Z,100.00
2023-03-13T00:02:55.745Z,100.00
2023-03-13T00:05:24.453Z,100.00
2023-03-13T00:07:54.474Z,100.00
2023-03-13T00:10:23.258Z,100.00
2023-03-13T00:12:51.774Z,100.00
2023-03-13T00:15:27.426Z,100.00
2023-03-13T00:17:55.897Z,100.00
2023-03-13T00:20:24.381Z,100.00
2023-03-13T00:22:52.874Z,100.00
2023-03-13T00:25:21.939Z,100.00
2023-03-13T00:27:51.035Z,100.00
2023-03-13T00:30:23.318Z,100.00
2023-03-13T00:32:57.187Z,100.00
2023-03-13T00:35:25.733Z,100.00
2023-03-13T00:37:54.961Z,100.00
2023-03-13T00:40:27.548Z,100.00
2023-03-13T00:42:57.911Z,100.00
2023-03-13T00:45:27.193Z,100.00
2023-03-13T00:47:56.176Z,100.00
2023-03-13T00:50:29.089Z,100.00
2023-03-13T00:52:57.839Z,100.00
2023-03-13T00:55:26.289Z,100.00
2023-03-13T00:57:54.898Z,100.00
2023-03-13T01:00:23.555Z,100.00
2023-03-13T01:02:55.184Z,100.00
2023-03-13T01:05:24.234Z,100.00
2023-03-13T01:07:53.239Z,100.00
2023-03-13T01:10:27.245Z,100.00
2023-03-13T01:12:57.196Z,100.00
2023-03-13T01:15:26.502Z,100.00
2023-03-13T01:17:55.438Z,100.00
2023-03-13T01:20:30.223Z,100.00
2023-03-13T01:22:59.495Z,100.00
2023-03-13T01:25:37.612Z,100.00
2023-03-13T01:28:12.492Z,100.00
2023-03-13T01:30:41.254Z,100.00
2023-03-13T01:33:18.707Z,100.00
2023-03-13T01:35:53.218Z,100.00
2023-03-13T01:38:22.289Z,100.00
2023-03-13T01:40:51.518Z,100.00
2023-03-13T01:43:26.987Z,100.00
2023-03-13T01:46:01.979Z,100.00
2023-03-13T01:49:16.612Z,100.00
2023-03-13T01:52:04.730Z,100.00
2023-03-13T01:55:16.501Z,100.00
2023-03-13T01:57:51.057Z,100.00
2023-03-13T02:00:25.303Z,100.00
2023-03-13T02:02:56.095Z,100.00
2023-03-13T02:05:26.435Z,100.00
2023-03-13T02:07:59.676Z,100.00
2023-03-13T02:10:28.987Z,100.00
2023-03-13T02:12:59.618Z,100.00
2023-03-13T02:15:32.133Z,100.00
2023-03-13T02:18:01.023Z,100.00
2023-03-13T02:20:35.762Z,100.00
2023-03-13T02:23:44.275Z,100.00
2023-03-13T02:26:12.930Z,100.00
2023-03-13T02:28:47.069Z,100.00
2023-03-13T02:31:19.610Z,100.00
2023-03-13T02:33:49.060Z,100.00
2023-03-13T02:36:21.215Z,100.00
2023-03-13T02:38:59.916Z,100.00
2023-03-13T02:41:28.505Z,100.00
2023-03-13T02:44:01.522Z,100.00
2023-03-13T02:46:32.946Z,100.00
2023-03-13T02:49:20.393Z,100.00
2023-03-13T02:51:49.585Z,100.00
2023-03-13T02:54:32.505Z,100.00
2023-03-13T02:57:02.265Z,100.00
2023-03-13T02:59:31.277Z,100.00
2023-03-13T03:01:59.796Z,100.00
2023-03-13T03:04:28.556Z,100.00
2023-03-13T03:06:58.165Z,100.00
2023-03-13T03:09:27.096Z,100.00
2023-03-13T03:12:04.110Z,100.00
2023-03-13T03:14:34.589Z,100.00
2023-03-13T03:17:03.401Z,100.00
2023-03-13T03:19:38.391Z,100.00
2023-03-13T03:22:07.881Z,100.00
2023-03-13T03:24:36.358Z,100.00
2023-03-13T03:27:05.556Z,100.00
2023-03-13T03:29:39.182Z,100.00
2023-03-13T03:32:08.029Z,100.00
2023-03-13T03:34:37.010Z,100.00
2023-03-13T03:37:07.842Z,100.00
2023-03-13T03:39:38.050Z,100.00
2023-03-13T03:42:06.964Z,100.00
2023-03-13T03:44:36.769Z,100.00
2023-03-13T03:47:06.364Z,100.00
2023-03-13T03:49:37.868Z,100.00
2023-03-13T03:52:06.796Z,100.00
2023-03-13T03:54:39.528Z,100.00
2023-03-13T03:57:08.243Z,100.00
2023-03-13T03:59:39.579Z,100.00
2023-03-13T04:02:10.192Z,100.00
2023-03-13T04:04:39.057Z,100.00
2023-03-13T04:07:14.812Z,100.00
2023-03-13T04:09:43.347Z,100.00
2023-03-13T04:12:18.660Z,100.00
2023-03-13T04:14:49.322Z,100.00
2023-03-13T04:17:18.086Z,100.00
2023-03-13T04:19:48.856Z,100.00
2023-03-13T04:22:18.050Z,100.00
2023-03-13T04:24:51.748Z,100.00
2023-03-13T04:27:21.931Z,100.00
2023-03-13T04:29:51.710Z,100.00
2023-03-13T04:32:38.185Z,100.00
2023-03-13T04:35:24.987Z,100.00
2023-03-13T04:38:23.611Z,100.00
2023-03-13T04:41:00.834Z,100.00
2023-03-13T04:43:59.293Z,100.00
2023-03-13T04:47:03.821Z,100.00
2023-03-13T04:49:41.427Z,100.00
2023-03-13T04:52:25.968Z,100.00
2023-03-13T04:55:17.450Z,100.00
2023-03-13T04:57:59.520Z,100.00
2023-03-13T05:01:02.365Z,100.00
2023-03-13T05:03:48.771Z,100.00
2023-03-13T05:06:52.426Z,100.00
2023-03-13T05:09:49.043Z,100.00
2023-03-13T05:12:40.513Z,100.00
2023-03-13T05:15:26.015Z,100.00
2023-03-13T05:18:13.591Z,100.00
2023-03-13T05:21:09.188Z,100.00
2023-03-13T05:23:56.668Z,100.00
2023-03-13T05:26:52.648Z,100.00
2023-03-13T05:29:33.171Z,100.00
2023-03-13T05:32:12.363Z,100.00
2023-03-13T05:34:59.932Z,100.00
2023-03-13T05:37:51.672Z,100.00
2023-03-13T05:40:58.374Z,100.00
2023-03-13T05:43:39.790Z,100.00
2023-03-13T05:46:35.312Z,100.00
2023-03-13T05:49:26.974Z,100.00
2023-03-13T05:52:24.631Z,100.00
2023-03-13T05:55:13.350Z,100.00
2023-03-13T05:58:04.923Z,100.00
2023-03-13T06:01:08.509Z,100.00
2023-03-13T06:03:57.367Z,100.00
2023-03-13T06:06:27.351Z,100.00
2023-03-13T06:09:04.372Z,100.00
2023-03-13T06:11:35.382Z,100.00
2023-03-13T06:14:05.951Z,100.00
2023-03-13T06:16:43.405Z,100.00
2023-03-13T06:19:23.532Z,100.00
2023-03-13T06:21:53.762Z,100.00
2023-03-13T06:24:22.688Z,100.00
2023-03-13T06:26:51.415Z,100.00
2023-03-13T06:29:24.046Z,100.00
2023-03-13T06:31:53.678Z,100.00
2023-03-13T06:34:22.831Z,100.00
2023-03-13T06:36:51.484Z,100.00
2023-03-13T06:39:20.400Z,100.00
2023-03-13T06:41:49.531Z,100.00
2023-03-13T06:44:19.061Z,100.00
2023-03-13T06:46:50.111Z,100.00
2023-03-13T06:49:20.062Z,100.00
2023-03-13T06:51:53.832Z,100.00
2023-03-13T06:54:23.619Z,100.00
2023-03-13T06:56:54.150Z,100.00
2023-03-13T06:59:25.253Z,100.00
2023-03-13T07:01:54.893Z,100.00
2023-03-13T07:04:34.596Z,100.00
2023-03-13T07:07:07.561Z,100.00
2023-03-13T07:09:36.213Z,100.00
2023-03-13T07:12:05.848Z,100.00
2023-03-13T07:14:35.746Z,100.00
2023-03-13T07:17:04.598Z,100.00
2023-03-13T07:19:33.528Z,100.00
2023-03-13T07:22:02.296Z,100.00
2023-03-13T07:24:32.555Z,100.00
2023-03-13T07:27:07.430Z,100.00
2023-03-13T07:29:36.713Z,100.00
2023-03-13T07:32:06.487Z,100.00
2023-03-13T07:34:35.212Z,100.00
2023-03-13T07:37:05.011Z,100.00
2023-03-13T07:39:34.472Z,100.00
2023-03-13T07:42:07.577Z,100.00
2023-03-13T07:44:38.812Z,100.00
2023-03-13T07:47:07.776Z,100.00
2023-03-13T07:49:41.476Z,100.00
2023-03-13T07:52:10.453Z,100.00
2023-03-13T07:54:43.032Z,100.00
2023-03-13T07:57:13.462Z,100.00
2023-03-13T07:59:45.527Z,100.00
2023-03-13T08:02:22.670Z,100.00
2023-03-13T08:04:54.490Z,100.00
2023-03-13T08:07:23.564Z,100.00
2023-03-13T08:09:52.391Z,100.00
2023-03-13T08:12:23.723Z,100.00
2023-03-13T08:14:52.515Z,100.00
2023-03-13T08:17:22.911Z,100.00
2023-03-13T08:19:53.252Z,100.00
2023-03-13T08:22:22.171Z,100.00
2023-03-13T08:24:50.653Z,100.00
2023-03-13T08:27:20.677Z,100.00
2023-03-13T08:29:49.280Z,100.00
2023-03-13T08:32:22.457Z,100.00
2023-03-13T08:34:51.625Z,100.00
2023-03-13T08:37:20.074Z,100.00
2023-03-13T08:39:49.258Z,100.00
2023-03-13T08:42:18.299Z,100.00
2023-03-13T08:44:48.610Z,100.00
2023-03-13T08:47:18.817Z,100.00
2023-03-13T08:49:47.342Z,100.00
2023-03-13T08:52:15.969Z,100.00
2023-03-13T08:54:44.510Z,100.00
2023-03-13T08:57:12.997Z,100.00
2023-03-13T08:59:42.041Z,100.00
2023-03-13T09:02:19.135Z,100.00
2023-03-13T09:04:48.846Z,100.00
2023-03-13T09:07:17.583Z,100.00
2023-03-13T09:09:46.053Z,100.00
2023-03-13T09:12:29.640Z,100.00
2023-03-13T09:15:05.878Z,100.00
2023-03-13T09:17:36.499Z,100.00
2023-03-13T09:20:06.444Z,100.00
2023-03-13T09:22:35.629Z,100.00
2023-03-13T09:25:04.322Z,100.00
2023-03-13T09:27:41.478Z,100.00
2023-03-13T09:30:12.218Z,100.00
2023-03-13T09:32:40.958Z,100.00
2023-03-13T09:35:09.984Z,100.00
2023-03-13T09:37:38.535Z,100.00
2023-03-13T09:40:10.717Z,100.00
2023-03-13T09:42:46.874Z,100.00
2023-03-13T09:45:36.556Z,100.00
2023-03-13T09:48:39.459Z,100.00
2023-03-13T09:51:21.445Z,100.00
2023-03-13T09:53:55.192Z,100.00
2023-03-13T09:56:25.679Z,100.00
2023-03-13T09:58:56.580Z,100.00
2023-03-13T10:01:28.984Z,100.00
2023-03-13T10:04:41.915Z,100.00
2023-03-13T10:07:13.377Z,100.00
2023-03-13T10:09:43.396Z,100.00
2023-03-13T10:12:22.003Z,100.00
2023-03-13T10:15:14.197Z,100.00
2023-03-13T10:17:42.910Z,100.00
2023-03-13T10:20:17.454Z,100.00
2023-03-13T10:22:49.527Z,100.00
2023-03-13T10:25:34.715Z,100.00
2023-03-13T10:28:05.369Z,100.00
2023-03-13T10:30:35.981Z,100.00
2023-03-13T10:33:08.472Z,100.00
2023-03-13T10:35:39.869Z,100.00
2023-03-13T10:38:16.340Z,100.00
2023-03-13T10:41:01.899Z,100.00
2023-03-13T10:43:31.236Z,100.00
2023-03-13T10:46:24.656Z,100.00
2023-03-13T10:48:55.531Z,100.00
2023-03-13T10:51:31.986Z,100.00
2023-03-13T10:54:01.071Z,100.00
2023-03-13T10:56:30.546Z,100.00
2023-03-13T10:58:59.282Z,100.00
2023-03-13T11:01:40.014Z,100.00
2023-03-13T11:04:34.967Z,100.00
2023-03-13T11:07:16.280Z,100.00
2023-03-13T11:10:19.033Z,100.00
2023-03-13T11:12:55.528Z,100.00
2023-03-13T11:15:52.618Z,100.00
2023-03-13T11:18:32.617Z,100.00
2023-03-13T11:21:17.549Z,100.00
2023-03-13T11:23:50.644Z,100.00
2023-03-13T11:26:22.844Z,100.00
2023-03-13T11:28:59.833Z,100.00
2023-03-13T11:31:34.431Z,100.00
2023-03-13T11:34:18.852Z,100.00
2023-03-13T11:36:56.556Z,100.00
2023-03-13T11:39:44.644Z,100.00
2023-03-13T11:42:40.095Z,100.00
2023-03-13T11:45:34.124Z,100.00
2023-03-13T11:48:09.073Z,100.00
2023-03-13T11:50:38.224Z,100.00
2023-03-13T11:53:10.328Z,100.00
2023-03-13T11:55:58.515Z,100.00
2023-03-13T11:58:49.756Z,100.00
2023-03-13T12:01:21.599Z,100.00
2023-03-13T12:04:00.652Z,100.00
2023-03-13T12:06:38.670Z,100.00
2023-03-13T12:09:13.041Z,97.61
2023-03-13T12:12:05.188Z,95.03
2023-03-13T12:14:57.039Z,90.28
2023-03-13T12:18:17.703Z,91.23
2023-03-13T12:21:05.889Z,89.79
2023-03-13T12:23:46.194Z,88.10
2023-03-13T12:26:15.848Z,91.32
2023-03-13T12:29:19.118Z,96.06
2023-03-13T12:32:25.620Z,95.52
2023-03-13T12:34:56.866Z,95.66
2023-03-13T12:37:45.944Z,94.03
2023-03-13T12:40:24.982Z,90.66
2023-03-13T12:43:03.323Z,89.65
2023-03-13T12:45:33.196Z,91.47
2023-03-13T12:48:14.583Z,97.25
2023-03-13T12:50:58.318Z,99.05
2023-03-13T12:53:51.345Z,100.00
2023-03-13T12:56:56.615Z,100.00
2023-03-13T12:59:31.626Z,100.00
2023-03-13T13:02:06.555Z,100.00
2023-03-13T13:04:42.997Z,100.00
2023-03-13T13:07:56.823Z,100.00
2023-03-13T13:10:27.046Z,100.00
2023-03-13T13:13:18.503Z,100.00
2023-03-13T13:16:06.270Z,100.00
2023-03-13T13:18:34.943Z,100.00
2023-03-13T13:21:03.383Z,100.00
2023-03-13T13:23:39.232Z,100.00
2023-03-13T13:26:37.731Z,100.00
2023-03-13T13:29:12.575Z,100.00
2023-03-13T13:31:51.923Z,100.00
2023-03-13T13:35:07.182Z,100.00
2023-03-13T13:37:35.961Z,100.00
2023-03-13T13:40:17.085Z,100.00
2023-03-13T13:42:52.694Z,100.00
2023-03-13T13:45:25.941Z,100.00
2023-03-13T13:48:34.125Z,100.00
2023-03-13T13:51:12.295Z,100.00
2023-03-13T13:53:47.936Z,100.00
2023-03-13T13:56:29.324Z,100.00
2023-03-13T13:59:25.113Z,100.00
2023-03-13T14:02:10.552Z,100.00
2023-03-13T14:04:53.926Z,100.00
2023-03-13T14:07:38.108Z,100.00
2023-03-13T14:10:59.956Z,100.00
2023-03-13T14:13:28.426Z,100.00
2023-03-13T14:15:56.882Z,100.00
2023-03-13T14:18:30.952Z,100.00
2023-03-13T14:21:01.654Z,100.00
2023-03-13T14:23:44.588Z,100.00
2023-03-13T14:26:13.182Z,100.00
2023-03-13T14:28:44.325Z,100.00
2023-03-13T14:31:22.331Z,100.00
2023-03-13T14:33:51.099Z,100.00
2023-03-13T14:36:19.739Z,100.00
2023-03-13T14:39:01.326Z,100.00
2023-03-13T14:41:31.538Z,100.00
2023-03-13T14:44:07.429Z,100.00
2023-03-13T14:46:36.443Z,100.00
2023-03-13T14:49:19.926Z,100.00
2023-03-13T14:52:23.516Z,100.00
2023-03-13T14:54:54.895Z,100.00
2023-03-13T14:57:28.013Z,100.00
2023-03-13T15:00:35.565Z,100.00
2023-03-13T15:03:17.132Z,100.00
2023-03-13T15:05:51.062Z,100.00
2023-03-13T15:08:22.382Z,100.00
2023-03-13T15:10:54.869Z,100.00
2023-03-13T15:13:25.736Z,100.00
2023-03-13T15:15:54.609Z,100.00
2023-03-13T15:18:32.065Z,100.00
2023-03-13T15:21:18.874Z,100.00
2023-03-13T15:23:56.780Z,100.00
2023-03-13T15:26:26.776Z,100.00
2023-03-13T15:31:38.442Z,100.00
2023-03-13T15:34:09.673Z,100.00
2023-03-13T15:36:41.990Z,100.00
2023-03-13T15:39:16.843Z,100.00
2023-03-13T15:41:45.705Z,100.00
2023-03-13T15:44:15.149Z,100.00
2023-03-13T15:46:44.027Z,100.00
2023-03-13T15:49:13.521Z,100.00
2023-03-13T15:51:44.139Z,100.00
2023-03-13T15:54:14.209Z,100.00
2023-03-13T15:56:43.043Z,100.00
2023-03-13T15:59:12.813Z,100.00
2023-03-13T16:01:44.643Z,100.00
2023-03-13T16:04:14.126Z,100.00
2023-03-13T16:06:43.372Z,100.00
2023-03-13T16:09:14.381Z,100.00
2023-03-13T16:11:42.982Z,100.00
2023-03-13T16:14:11.494Z,100.00
2023-03-13T16:16:45.962Z,100.00
2023-03-13T16:19:14.391Z,100.00
2023-03-13T16:21:48.525Z,100.00
2023-03-13T16:24:21.172Z,100.00
2023-03-13T16:26:51.206Z,100.00
2023-03-13T16:29:19.724Z,100.00
2023-03-13T16:31:48.528Z,100.00
2023-03-13T16:34:17.010Z,100.00
2023-03-13T16:36:45.453Z,100.00
2023-03-13T16:39:17.189Z,100.00
2023-03-13T16:41:46.443Z,100.00
2023-03-13T16:44:18.720Z,100.00
2023-03-13T16:47:02.800Z,100.00
2023-03-13T16:49:34.035Z,100.00
2023-03-13T16:52:02.764Z,100.00
2023-03-13T16:54:31.968Z,100.00
2023-03-13T16:57:04.622Z,100.00
2023-03-13T16:59:33.039Z,100.00
2023-03-13T17:02:02.460Z,100.00
2023-03-13T17:04:31.834Z,100.00
2023-03-13T17:07:00.947Z,100.00
2023-03-13T17:09:35.823Z,100.00
2023-03-13T17:12:05.008Z,100.00
2023-03-13T17:14:33.443Z,100.00
2023-03-13T17:17:04.880Z,100.00
2023-03-13T17:19:35.135Z,100.00
2023-03-13T17:22:04.329Z,100.00
2023-03-13T17:24:32.746Z,100.00
2023-03-13T17:27:04.538Z,100.00
2023-03-13T17:29:34.124Z,100.00
2023-03-13T17:32:04.146Z,100.00
2023-03-13T17:34:34.158Z,100.00
2023-03-13T17:37:05.122Z,100.00
2023-03-13T17:39:33.781Z,100.00
2023-03-13T17:42:05.775Z,100.00
2023-03-13T17:44:34.554Z,100.00
2023-03-13T17:47:02.959Z,100.00
2023-03-13T17:49:32.553Z,100.00
2023-03-13T17:52:00.953Z,100.00
2023-03-13T17:54:29.868Z,100.00
2023-03-13T17:56:58.255Z,100.00
2023-03-13T17:59:29.499Z,100.00
2023-03-13T18:01:58.965Z,100.00
2023-03-13T18:04:29.060Z,100.00
2023-03-13T18:06:58.352Z,100.00
2023-03-13T18:09:26.759Z,100.00
2023-03-13T18:11:55.788Z,100.00
2023-03-13T18:14:25.193Z,100.00
2023-03-13T18:16:57.394Z,100.00
2023-03-13T18:19:27.159Z,100.00
2023-03-13T18:21:56.057Z,100.00
2023-03-13T18:24:28.660Z,100.00
2023-03-13T18:26:57.377Z,100.00
2023-03-13T18:29:29.536Z,100.00
2023-03-13T18:32:00.722Z,100.00
2023-03-13T18:34:29.614Z,100.00
2023-03-13T18:37:11.930Z,100.00
2023-03-13T18:39:41.812Z,100.00
2023-03-13T18:42:10.885Z,100.00
2023-03-13T18:44:40.355Z,100.00
2023-03-13T18:47:13.184Z,100.00
2023-03-13T18:49:41.748Z,100.00
2023-03-13T18:52:11.155Z,100.00
2023-03-13T18:54:45.263Z,100.00
2023-03-13T18:57:15.499Z,100.00
2023-03-13T18:59:44.297Z,100.00
2023-03-13T19:02:18.062Z,100.00
2023-03-13T19:04:47.369Z,100.00
2023-03-13T19:07:26.484Z,100.00
2023-03-13T19:09:55.056Z,100.00
2023-03-13T19:12:23.752Z,100.00
2023-03-13T19:14:53.448Z,100.00
2023-03-13T19:17:27.214Z,100.00
2023-03-13T19:19:57.640Z,100.00
2023-03-13T19:22:26.689Z,100.00
2023-03-13T19:24:55.936Z,100.00
2023-03-13T19:27:25.787Z,100.00
2023-03-13T19:29:54.495Z,100.00
2023-03-13T19:32:23.055Z,100.00
2023-03-13T19:34:52.087Z,100.00
2023-03-13T19:37:21.113Z,100.00
2023-03-13T19:39:51.017Z,100.00
2023-03-13T19:42:19.769Z,100.00
2023-03-13T19:44:50.635Z,100.00
2023-03-13T19:47:19.196Z,100.00
2023-03-13T19:49:50.165Z,100.00
2023-03-13T19:52:19.561Z,100.00
2023-03-13T19:54:48.468Z,100.00
2023-03-13T19:57:18.143Z,100.00
2023-03-13T19:59:47.326Z,100.00
2023-03-13T20:02:17.989Z,100.00
2023-03-13T20:04:46.506Z,100.00
2023-03-13T20:07:14.958Z,100.00
2023-03-13T20:09:48.930Z,100.00
2023-03-13T20:12:17.697Z,100.00
2023-03-13T20:14:47.046Z,100.00
2023-03-13T20:17:15.445Z,100.00
2023-03-13T20:19:43.966Z,100.00
2023-03-13T20:22:14.414Z,100.00
2023-03-13T20:24:43.729Z,100.00
2023-03-13T20:27:13.321Z,100.00
2023-03-13T20:29:41.746Z,100.00
2023-03-13T20:32:11.631Z,100.00
2023-03-13T20:34:40.118Z,100.00
2023-03-13T20:37:08.605Z,100.00
2023-03-13T20:39:37.731Z,100.00
2023-03-13T20:42:10.504Z,100.00
2023-03-13T20:44:39.009Z,100.00
2023-03-13T20:47:07.632Z,100.00
2023-03-13T20:49:36.181Z,100.00
2023-03-13T20:52:05.795Z,100.00
2023-03-13T20:54:34.820Z,100.00
2023-03-13T20:57:08.978Z,100.00
2023-03-13T20:59:38.646Z,100.00
2023-03-13T21:02:07.364Z,100.00
2023-03-13T21:04:38.015Z,100.00
2023-03-13T21:07:06.731Z,100.00
2023-03-13T21:09:36.952Z,100.00
2023-03-13T21:12:05.674Z,100.00
2023-03-13T21:14:36.605Z,100.00
2023-03-13T21:17:05.147Z,100.00
2023-03-13T21:19:34.460Z,100.00
2023-03-13T21:22:03.322Z,100.00
2023-03-13T21:24:33.755Z,100.00
2023-03-13T21:27:02.196Z,100.00
2023-03-13T21:29:37.849Z,100.00
2023-03-13T21:32:07.717Z,100.00
2023-03-13T21:34:36.160Z,100.00
2023-03-13T21:37:06.046Z,100.00
2023-03-13T21:39:35.210Z,100.00
2023-03-13T21:42:04.533Z,100.00
2023-03-13T21:44:34.501Z,100.00
2023-03-13T21:47:02.957Z,100.00
2023-03-13T21:49:32.890Z,100.00
2023-03-13T21:52:01.350Z,100.00
2023-03-13T21:54:30.169Z,100.00
2023-03-13T21:56:58.862Z,100.00
2023-03-13T21:59:35.384Z,100.00
2023-03-13T22:02:04.407Z,100.00
2023-03-13T22:04:33.730Z,100.00
2023-03-13T22:07:03.130Z,100.00
2023-03-13T22:09:33.156Z,100.00
2023-03-13T22:12:05.630Z,100.00
2023-03-13T22:14:34.032Z,100.00
2023-03-13T22:17:02.471Z,100.00
2023-03-13T22:19:32.069Z,100.00
2023-03-13T22:22:02.440Z,100.00
2023-03-13T22:24:30.864Z,100.00
2023-03-13T22:26:59.255Z,100.00
2023-03-13T22:29:30.704Z,100.00
2023-03-13T22:31:59.338Z,100.00
2023-03-13T22:34:28.117Z,100.00
2023-03-13T22:36:58.760Z,100.00
2023-03-13T22:39:28.225Z,100.00
2023-03-13T22:41:56.733Z,100.00
2023-03-13T22:44:26.251Z,100.00
2023-03-13T22:46:54.977Z,100.00
2023-03-13T22:49:23.929Z,100.00
2023-03-13T22:51:52.503Z,100.00
2023-03-13T22:54:20.938Z,100.00
2023-03-13T22:56:49.642Z,100.00
2023-03-13T22:59:18.320Z,100.00
2023-03-13T23:01:47.090Z,100.00
2023-03-13T23:04:15.736Z,100.00
2023-03-13T23:06:44.129Z,100.00
2023-03-13T23:09:15.311Z,100.00
2023-03-13T23:11:44.164Z,100.00
2023-03-13T23:14:14.066Z,100.00
2023-03-13T23:16:43.035Z,100.00
2023-03-13T23:19:11.697Z,100.00
2023-03-13T23:21:40.763Z,100.00
2023-03-13T23:24:09.433Z,100.00
2023-03-13T23:26:37.903Z,100.00
2023-03-13T23:29:06.615Z,100.00
2023-03-13T23:31:35.649Z,100.00
2023-03-13T23:34:04.375Z,100.00
2023-03-13T23:36:33.423Z,100.00
2023-03-13T23:39:05.503Z,100.00
2023-03-13T23:41:35.114Z,100.00
2023-03-13T23:44:03.610Z,100.00
2023-03-13T23:46:32.540Z,100.00
2023-03-13T23:49:01.267Z,100.00
2023-03-13T23:51:32.023Z,100.00
2023-03-13T23:54:00.658Z,100.00
2023-03-13T23:56:30.855Z,100.00
2023-03-13T23:58:59.594Z,100.00
